createdAt,value
2019-02-19T00:01:00.990Z,100294.81
2019-02-19T00:03:28.657Z,100288.88
2019-02-19T00:05:56.332Z,100284.45
2019-02-19T00:08:23.997Z,100281.41
2019-02-19T00:10:51.650Z,100287.58
2019-02-19T00:13:19.314Z,100279.38
2019-02-19T00:15:46.969Z,100279.48
2019-02-19T00:18:14.629Z,100280.87
2019-02-19T00:20:42.298Z,100285.45
2019-02-19T00:23:09.965Z,100271.02
2019-02-19T00:25:37.621Z,100270.29
2019-02-19T00:28:05.289Z,100268.98
2019-02-19T00:30:32.942Z,100271.28
2019-02-19T00:33:00.600Z,100269.74
2019-02-19T00:35:28.258Z,100272.19
2019-02-19T00:37:55.916Z,100281.08
2019-02-19T00:40:23.574Z,100271.14
2019-02-19T00:42:51.229Z,100270.51
2019-02-19T00:45:18.893Z,100271.73
2019-02-19T00:47:46.553Z,100276.73
2019-02-19T00:50:14.224Z,100283.36
2019-02-19T00:52:41.878Z,100280.85
2019-02-19T00:55:09.540Z,100275.45
2019-02-19T00:57:37.200Z,100277.69
2019-02-19T01:00:04.865Z,100277.47
2019-02-19T01:02:32.524Z,100280.52
2019-02-19T01:05:00.275Z,100278.13
2019-02-19T01:07:28.126Z,100274.47
2019-02-19T01:09:55.781Z,100283.31
2019-02-19T01:12:23.458Z,100278.08
2019-02-19T01:14:51.131Z,100284.89
2019-02-19T01:17:18.789Z,100281.63
2019-02-19T01:19:46.458Z,100276.58
2019-02-19T01:22:14.110Z,100270.31
2019-02-19T01:24:41.770Z,100267.04
2019-02-19T01:27:09.453Z,100262.87
2019-02-19T01:29:37.125Z,100265.10
2019-02-19T01:32:04.788Z,100262.88
2019-02-19T01:34:32.475Z,100266.63
2019-02-19T01:37:00.140Z,100262.87
2019-02-19T01:39:27.797Z,100263.63
2019-02-19T01:41:55.460Z,100263.63
2019-02-19T01:44:23.121Z,100261.64
2019-02-19T01:46:50.782Z,100256.92
2019-02-19T01:49:18.445Z,100251.64
2019-02-19T01:51:46.118Z,100248.25
2019-02-19T01:54:13.849Z,100246.77
2019-02-19T01:56:41.503Z,100245.92
2019-02-19T01:59:09.168Z,100244.86
2019-02-19T02:01:36.813Z,100247.64
2019-02-19T02:04:04.491Z,100245.32
2019-02-19T02:06:32.162Z,100239.82
2019-02-19T02:08:59.804Z,100239.38
2019-02-19T02:11:27.474Z,100239.20
2019-02-19T02:13:55.135Z,100244.76
2019-02-19T02:16:22.797Z,100243.31
2019-02-19T02:18:50.457Z,100241.77
2019-02-19T02:21:18.136Z,100250.14
2019-02-19T02:23:45.953Z,100240.11
2019-02-19T02:26:13.610Z,100242.32
2019-02-19T02:28:41.275Z,100239.81
2019-02-19T02:31:08.941Z,100236.77
2019-02-19T02:33:36.600Z,100237.09
2019-02-19T02:36:04.259Z,100233.16
2019-02-19T02:38:31.934Z,100237.31
2019-02-19T02:40:59.584Z,100232.59
2019-02-19T02:43:27.251Z,100233.89
2019-02-19T02:45:54.911Z,100228.78
2019-02-19T02:48:22.576Z,100227.50
2019-02-19T02:50:50.234Z,100228.11
2019-02-19T02:53:17.889Z,100230.71
2019-02-19T02:55:45.549Z,100234.05
2019-02-19T02:58:13.210Z,100228.31
2019-02-19T03:00:40.868Z,100234.55
2019-02-19T03:03:08.536Z,100223.83
2019-02-19T03:05:38.721Z,100224.39
2019-02-19T03:08:06.974Z,100229.16
2019-02-19T03:10:34.638Z,100229.88
2019-02-19T03:13:02.306Z,100239.11
2019-02-19T03:15:29.972Z,100234.55
2019-02-19T03:17:57.635Z,100234.03
2019-02-19T03:20:25.288Z,100234.27
2019-02-19T03:22:52.943Z,100235.03
2019-02-19T03:25:20.615Z,100223.95
2019-02-19T03:27:48.265Z,100233.05
2019-02-19T03:30:15.945Z,100233.11
2019-02-19T03:32:43.671Z,100233.48
2019-02-19T03:35:11.330Z,100228.49
2019-02-19T03:37:39.032Z,100230.55
2019-02-19T03:40:07.659Z,100234.93
2019-02-19T03:42:35.688Z,100229.33
2019-02-19T03:45:03.346Z,100231.77
2019-02-19T03:47:31.040Z,100224.66
2019-02-19T03:49:58.744Z,100223.66
2019-02-19T03:52:26.398Z,100226.66
2019-02-19T03:54:54.058Z,100233.11
2019-02-19T03:57:21.717Z,100238.09
2019-02-19T03:59:49.372Z,100238.88
2019-02-19T04:02:17.039Z,100242.36
2019-02-19T04:04:44.701Z,100242.84
2019-02-19T04:07:12.353Z,100245.64
2019-02-19T04:09:40.035Z,100238.81
2019-02-19T04:12:07.682Z,100239.30
2019-02-19T04:14:35.354Z,100241.75
2019-02-19T04:17:03.017Z,100233.09
2019-02-19T04:19:30.671Z,100239.70
2019-02-19T04:21:58.338Z,100226.70
2019-02-19T04:24:25.998Z,100224.61
2019-02-19T04:26:53.654Z,100228.27
2019-02-19T04:29:21.326Z,100223.39
2019-02-19T04:31:48.977Z,100222.33
2019-02-19T04:34:16.649Z,100224.72
2019-02-19T04:36:44.304Z,100221.00
2019-02-19T04:39:11.978Z,100222.00
2019-02-19T04:41:39.652Z,100224.11
2019-02-19T04:44:07.398Z,100222.33
2019-02-19T04:46:35.055Z,100222.89
2019-02-19T04:49:02.712Z,100224.48
2019-02-19T04:51:30.382Z,100223.16
2019-02-19T04:53:58.099Z,100220.33
2019-02-19T04:56:25.766Z,100223.77
2019-02-19T04:58:53.423Z,100218.78
2019-02-19T05:01:21.087Z,100216.09
2019-02-19T05:03:48.749Z,100212.39
2019-02-19T05:06:16.417Z,100211.79
2019-02-19T05:08:44.680Z,100214.02
2019-02-19T05:11:12.519Z,100210.11
2019-02-19T05:13:40.173Z,100217.78
2019-02-19T05:16:07.842Z,100207.11
2019-02-19T05:18:35.505Z,100216.70
2019-02-19T05:21:03.181Z,100212.58
2019-02-19T05:23:30.854Z,100227.72
2019-02-19T05:25:58.514Z,100232.56
2019-02-19T05:28:26.269Z,100233.45
2019-02-19T05:30:53.926Z,100237.56
2019-02-19T05:33:21.614Z,100239.14
2019-02-19T05:35:49.339Z,100239.83
2019-02-19T05:38:17.007Z,100235.22
2019-02-19T05:40:44.682Z,100229.44
2019-02-19T05:43:12.334Z,100238.30
2019-02-19T05:45:40.007Z,100236.72
2019-02-19T05:48:07.665Z,100234.84
2019-02-19T05:50:35.341Z,100243.61
2019-02-19T05:53:03.001Z,100254.67
2019-02-19T05:55:30.674Z,100245.75
2019-02-19T05:57:58.325Z,100259.19
2019-02-19T06:00:25.982Z,100266.16
2019-02-19T06:02:53.653Z,100262.73
2019-02-19T06:05:21.416Z,100267.62
2019-02-19T06:07:49.128Z,100261.35
2019-02-19T06:10:16.797Z,100264.60
2019-02-19T06:12:44.454Z,100260.77
2019-02-19T06:15:12.135Z,100266.34
2019-02-19T06:17:39.794Z,100262.23
2019-02-19T06:20:07.451Z,100262.61
2019-02-19T06:22:35.135Z,100269.30
2019-02-19T06:25:02.796Z,100266.84
2019-02-19T06:27:30.460Z,100257.72
2019-02-19T06:29:58.138Z,100263.59
2019-02-19T06:32:25.790Z,100266.22
2019-02-19T06:34:53.457Z,100271.59
2019-02-19T06:37:21.122Z,100272.68
2019-02-19T06:39:48.782Z,100269.17
2019-02-19T06:42:16.446Z,100272.29
2019-02-19T06:44:44.129Z,100276.52
2019-02-19T06:47:12.709Z,100287.27
2019-02-19T06:49:40.425Z,100280.52
2019-02-19T06:52:08.090Z,100284.51
2019-02-19T06:54:35.753Z,100275.26
2019-02-19T06:57:03.417Z,100277.38
2019-02-19T06:59:31.093Z,100285.28
2019-02-19T07:02:20.686Z,100291.13
2019-02-19T07:04:52.245Z,100291.19
2019-02-19T07:07:19.925Z,100283.19
2019-02-19T07:09:47.660Z,100293.30
2019-02-19T07:12:15.318Z,100298.50
2019-02-19T07:14:42.977Z,100293.39
2019-02-19T07:17:15.742Z,100303.34
2019-02-19T07:19:40.009Z,100303.74
2019-02-19T07:22:07.661Z,100299.42
2019-02-19T07:24:35.327Z,100301.45
2019-02-19T07:27:02.984Z,100294.03
2019-02-19T07:29:30.648Z,100298.13
2019-02-19T07:31:58.305Z,100297.20
2019-02-19T07:34:25.973Z,100301.70
2019-02-19T07:36:53.621Z,100302.83
2019-02-19T07:39:21.286Z,100299.88
2019-02-19T07:41:48.940Z,100295.66
2019-02-19T07:44:16.606Z,100303.20
2019-02-19T07:46:44.265Z,100294.16
2019-02-19T07:49:11.925Z,100300.18
2019-02-19T07:51:39.585Z,100299.70
2019-02-19T07:54:07.254Z,100294.56
2019-02-19T07:56:34.918Z,100295.94
2019-02-19T07:59:02.582Z,100297.30
2019-02-19T08:01:30.255Z,100296.81
2019-02-19T08:03:57.909Z,100298.48
2019-02-19T08:06:25.568Z,100294.77
2019-02-19T08:08:53.242Z,100291.31
2019-02-19T08:11:20.902Z,100301.86
2019-02-19T08:13:48.573Z,100298.36
2019-02-19T08:16:16.230Z,100300.22
2019-02-19T08:18:43.905Z,100300.91
2019-02-19T08:21:11.555Z,100299.67
2019-02-19T08:23:39.225Z,100305.13
2019-02-19T08:26:06.877Z,100308.17
2019-02-19T08:28:34.537Z,100308.67
2019-02-19T08:31:02.213Z,100307.29
2019-02-19T08:33:29.878Z,100305.08
2019-02-19T08:35:57.533Z,100305.72
2019-02-19T08:38:25.227Z,100303.03
2019-02-19T08:40:52.918Z,100303.31
2019-02-19T08:43:20.576Z,100302.15
2019-02-19T08:45:48.238Z,100306.42
2019-02-19T08:48:15.894Z,100303.44
2019-02-19T08:50:43.575Z,100287.38
2019-02-19T08:53:11.238Z,100296.88
2019-02-19T08:55:38.899Z,100297.11
2019-02-19T08:58:06.551Z,100295.96
2019-02-19T09:00:34.237Z,100297.52
2019-02-19T09:03:01.899Z,100291.09
2019-02-19T09:05:29.552Z,100286.75
2019-02-19T09:07:57.214Z,100292.00
2019-02-19T09:10:24.879Z,100298.02
2019-02-19T09:12:52.557Z,100306.05
2019-02-19T09:15:20.226Z,100299.70
2019-02-19T09:17:51.873Z,100294.09
2019-02-19T09:20:17.338Z,100302.70
2019-02-19T09:22:44.994Z,100302.20
2019-02-19T09:25:12.658Z,100305.36
2019-02-19T09:27:40.325Z,100300.98
2019-02-19T09:30:07.993Z,100308.97
2019-02-19T09:32:35.657Z,100304.17
2019-02-19T09:35:03.327Z,100304.86
2019-02-19T09:37:30.991Z,100298.73
2019-02-19T09:39:58.672Z,100309.97
2019-02-19T09:42:26.410Z,100306.05
2019-02-19T09:44:54.074Z,100306.60
2019-02-19T09:47:21.747Z,100305.58
2019-02-19T09:49:49.437Z,100301.05
2019-02-19T09:52:17.081Z,100298.40
2019-02-19T09:54:45.151Z,100297.56
2019-02-19T09:57:12.809Z,100298.16
2019-02-19T09:59:40.469Z,100302.83
2019-02-19T10:02:08.121Z,100302.91
2019-02-19T10:04:35.781Z,100304.48
2019-02-19T10:07:03.551Z,100299.66
2019-02-19T10:09:31.235Z,100295.76
2019-02-19T10:11:58.963Z,100299.66
2019-02-19T10:14:26.623Z,100285.12
2019-02-19T10:16:54.395Z,100292.20
2019-02-19T10:19:22.383Z,100288.64
2019-02-19T10:21:50.106Z,100282.28
2019-02-19T10:24:17.811Z,100278.25
2019-02-19T10:26:45.578Z,100289.28
2019-02-19T10:29:13.228Z,100286.51
2019-02-19T10:31:40.945Z,100295.88
2019-02-19T10:34:08.651Z,100294.48
2019-02-19T10:36:36.310Z,100284.97
2019-02-19T10:39:04.998Z,100286.12
2019-02-19T10:41:32.663Z,100285.63
2019-02-19T10:44:00.426Z,100287.04
2019-02-19T10:46:28.091Z,100287.98
2019-02-19T10:48:55.745Z,100288.39
2019-02-19T10:51:23.401Z,100277.52
2019-02-19T10:53:51.075Z,100285.34
2019-02-19T10:56:18.736Z,100292.23
2019-02-19T10:58:46.400Z,100281.56
2019-02-19T11:01:14.069Z,100284.64
2019-02-19T11:03:41.733Z,100283.80
2019-02-19T11:06:09.385Z,100275.50
2019-02-19T11:08:37.037Z,100272.61
2019-02-19T11:11:04.701Z,100267.30
2019-02-19T11:13:32.354Z,100272.38
2019-02-19T11:16:00.015Z,100271.03
2019-02-19T11:18:28.744Z,100275.14
2019-02-19T11:20:56.722Z,100280.80
2019-02-19T11:23:24.385Z,100266.08
2019-02-19T11:25:52.048Z,100267.44
2019-02-19T11:28:19.705Z,100272.86
2019-02-19T11:30:47.397Z,100270.31
2019-02-19T11:33:15.041Z,100274.53
2019-02-19T11:35:42.711Z,100274.02
2019-02-19T11:38:10.375Z,100271.37
2019-02-19T11:40:38.042Z,100272.98
2019-02-19T11:43:05.703Z,100276.72
2019-02-19T11:45:33.357Z,100276.97
2019-02-19T11:48:01.010Z,100271.98
2019-02-19T11:50:28.743Z,100272.16
2019-02-19T11:52:56.930Z,100282.32
2019-02-19T11:55:24.602Z,100287.42
2019-02-19T11:57:52.270Z,100294.12
2019-02-19T12:00:23.994Z,100284.63
2019-02-19T12:02:51.644Z,100292.95
2019-02-19T12:05:19.310Z,100286.23
2019-02-19T12:07:46.978Z,100283.86
2019-02-19T12:10:14.633Z,100280.95
2019-02-19T12:12:42.297Z,100270.13
2019-02-19T12:15:09.950Z,100277.87
2019-02-19T12:17:37.622Z,100285.38
2019-02-19T12:20:05.288Z,100287.22
2019-02-19T12:22:32.940Z,100291.02
2019-02-19T12:25:00.614Z,100298.78
2019-02-19T12:27:28.274Z,100287.73
2019-02-19T12:29:55.944Z,100296.12
2019-02-19T12:32:23.600Z,100302.22
2019-02-19T12:34:51.268Z,100301.25
2019-02-19T12:37:18.928Z,100299.27
2019-02-19T12:39:46.598Z,100299.12
2019-02-19T12:42:14.264Z,100296.09
2019-02-19T12:44:41.934Z,100294.66
2019-02-19T12:47:09.610Z,100299.68
2019-02-19T12:49:37.320Z,100305.65
2019-02-19T12:52:05.023Z,100301.97
2019-02-19T12:54:32.686Z,100304.47
2019-02-19T12:57:00.360Z,100302.53
2019-02-19T12:59:28.094Z,100306.69
2019-02-19T13:01:55.762Z,100305.91
2019-02-19T13:04:23.455Z,100311.65
2019-02-19T13:06:51.174Z,100301.64
2019-02-19T13:09:18.843Z,100308.73
2019-02-19T13:11:46.501Z,100313.83
2019-02-19T13:14:14.158Z,100313.98
2019-02-19T13:16:41.828Z,100304.78
2019-02-19T13:19:09.493Z,100310.06
2019-02-19T13:21:37.136Z,100309.52
2019-02-19T13:24:04.789Z,100317.73
2019-02-19T13:26:32.474Z,100315.23
2019-02-19T13:29:00.170Z,100321.11
2019-02-19T13:31:27.851Z,100330.28
2019-02-19T13:33:55.506Z,100321.99
2019-02-19T13:36:23.170Z,100318.67
2019-02-19T13:38:50.827Z,100328.69
2019-02-19T13:41:18.514Z,100318.47
2019-02-19T13:43:46.180Z,100331.47
2019-02-19T13:46:13.859Z,100331.30
2019-02-19T13:48:41.506Z,100330.41
2019-02-19T13:51:09.170Z,100332.99
2019-02-19T13:53:42.672Z,100329.02
2019-02-19T13:56:10.323Z,100335.41
2019-02-19T13:58:37.983Z,100329.39
2019-02-19T14:01:05.636Z,100335.67
2019-02-19T14:03:33.305Z,100340.66
2019-02-19T14:06:00.982Z,100337.37
2019-02-19T14:08:28.639Z,100349.55
2019-02-19T14:10:56.285Z,100343.52
2019-02-19T14:13:23.946Z,100356.94
2019-02-19T14:16:00.099Z,100360.11
2019-02-19T14:18:47.134Z,100370.65
2019-02-19T14:21:20.049Z,100373.34
2019-02-19T14:24:04.909Z,100368.55
2019-02-19T14:26:43.737Z,100366.48
2019-02-19T14:29:16.727Z,100373.13
2019-02-19T14:31:58.809Z,100375.70
2019-02-19T14:34:45.521Z,100380.81
2019-02-19T14:37:35.215Z,100381.42
2019-02-19T14:40:10.506Z,100377.42
2019-02-19T14:42:54.478Z,100370.19
2019-02-19T14:45:42.057Z,100384.75
2019-02-19T14:48:31.606Z,100371.59
2019-02-19T14:51:06.915Z,100374.45
2019-02-19T14:53:43.601Z,100373.28
2019-02-19T14:56:21.090Z,100369.90
2019-02-19T14:58:59.415Z,100379.92
2019-02-19T15:01:48.043Z,100367.20
2019-02-19T15:04:31.185Z,100372.50
2019-02-19T15:07:13.521Z,100361.27
2019-02-19T15:09:55.597Z,100353.70
2019-02-19T15:12:36.574Z,100347.34
2019-02-19T15:15:12.539Z,100343.95
2019-02-19T15:17:51.766Z,100336.23
2019-02-19T15:20:24.341Z,100334.47
2019-02-19T15:23:01.516Z,100332.66
2019-02-19T15:25:44.044Z,100329.81
2019-02-19T15:28:16.852Z,100325.77
2019-02-19T15:30:49.826Z,100321.69
2019-02-19T15:33:29.235Z,100319.50
2019-02-19T15:36:17.991Z,100326.73
2019-02-19T15:39:07.878Z,100335.23
2019-02-19T15:41:51.820Z,100326.94
2019-02-19T15:44:30.354Z,100318.73
2019-02-19T15:47:19.969Z,100320.30
2019-02-19T15:49:58.958Z,100318.59
2019-02-19T15:52:36.849Z,100309.09
2019-02-19T15:55:13.324Z,100315.63
2019-02-19T15:57:51.637Z,100316.94
2019-02-19T16:00:39.386Z,100321.69
2019-02-19T16:03:12.121Z,100328.02
2019-02-19T16:05:53.838Z,100334.20
2019-02-19T16:08:26.707Z,100322.91
2019-02-19T16:11:13.403Z,100327.72
2019-02-19T16:13:55.573Z,100346.89
2019-02-19T16:16:28.725Z,100346.53
2019-02-19T16:19:05.599Z,100349.06
2019-02-19T16:21:42.573Z,100352.59
2019-02-19T16:24:15.523Z,100362.10
2019-02-19T16:26:50.512Z,100363.82
2019-02-19T16:29:28.092Z,100360.48
2019-02-19T16:32:00.954Z,100357.62
2019-02-19T16:34:39.733Z,100358.93
2019-02-19T16:37:15.459Z,100366.05
2019-02-19T16:39:53.161Z,100370.55
2019-02-19T16:42:26.157Z,100367.44
2019-02-19T16:45:04.357Z,100372.31
2019-02-19T16:47:46.154Z,100367.61
2019-02-19T16:50:23.638Z,100379.03
2019-02-19T16:53:10.328Z,100375.45
2019-02-19T16:55:51.947Z,100378.67
2019-02-19T16:58:30.046Z,100381.27
2019-02-19T17:01:03.745Z,100380.22
2019-02-19T17:03:36.945Z,100387.06
2019-02-19T17:06:19.358Z,100385.49
2019-02-19T17:09:06.953Z,100387.62
2019-02-19T17:11:42.953Z,100388.69
2019-02-19T17:14:22.382Z,100386.63
2019-02-19T17:16:55.372Z,100383.37
2019-02-19T17:19:42.077Z,100382.47
2019-02-19T17:22:32.813Z,100385.97
2019-02-19T17:25:05.746Z,100390.94
2019-02-19T17:27:38.723Z,100394.65
2019-02-19T17:30:22.794Z,100398.48
2019-02-19T17:32:58.551Z,100394.22
2019-02-19T17:35:35.954Z,100397.02
2019-02-19T17:38:14.898Z,100397.76
2019-02-19T17:40:55.550Z,100398.88
2019-02-19T17:43:31.184Z,100400.58
2019-02-19T17:46:18.890Z,100409.20
2019-02-19T17:49:05.594Z,100406.78
2019-02-19T17:51:56.153Z,100417.70
2019-02-19T17:54:32.315Z,100418.12
2019-02-19T17:57:05.161Z,100420.93
2019-02-19T17:59:40.717Z,100421.58
2019-02-19T18:02:14.018Z,100424.64
2019-02-19T18:04:46.911Z,100422.56
2019-02-19T18:07:34.641Z,100430.89
2019-02-19T18:10:23.476Z,100435.22
2019-02-19T18:13:03.137Z,100430.41
2019-02-19T18:15:51.794Z,100433.48
2019-02-19T18:18:28.771Z,100436.04
2019-02-19T18:20:56.427Z,100438.80
2019-02-19T18:23:24.231Z,100436.39
2019-02-19T18:25:51.879Z,100444.72
2019-02-19T18:28:19.540Z,100438.14
2019-02-19T18:30:47.219Z,100441.39
2019-02-19T18:33:14.940Z,100439.60
2019-02-19T18:35:42.606Z,100434.95
2019-02-19T18:38:10.243Z,100444.73
2019-02-19T18:40:37.910Z,100449.91
2019-02-19T18:43:05.646Z,100443.20
2019-02-19T18:45:33.298Z,100445.36
2019-02-19T18:48:00.984Z,100443.94
2019-02-19T18:50:28.659Z,100450.41
2019-02-19T18:52:56.309Z,100451.94
2019-02-19T18:55:23.974Z,100455.31
2019-02-19T18:57:51.634Z,100447.70
2019-02-19T19:00:19.300Z,100455.28
2019-02-19T19:02:46.973Z,100455.42
2019-02-19T19:05:14.637Z,100453.80
2019-02-19T19:07:42.299Z,100453.48
2019-02-19T19:10:09.966Z,100448.78
2019-02-19T19:12:37.620Z,100450.61
2019-02-19T19:15:05.277Z,100452.81
2019-02-19T19:17:32.932Z,100449.23
2019-02-19T19:20:00.594Z,100449.87
2019-02-19T19:22:28.244Z,100454.13
2019-02-19T19:24:55.902Z,100458.38
2019-02-19T19:27:23.559Z,100456.75
2019-02-19T19:29:51.225Z,100462.97
2019-02-19T19:32:18.869Z,100470.19
2019-02-19T19:34:46.524Z,100461.81
2019-02-19T19:37:14.201Z,100470.63
2019-02-19T19:39:41.933Z,100477.94
2019-02-19T19:42:09.595Z,100477.86
2019-02-19T19:44:37.250Z,100470.02
2019-02-19T19:47:04.910Z,100467.05
2019-02-19T19:49:32.577Z,100471.48
2019-02-19T19:52:00.426Z,100465.45
2019-02-19T19:54:28.161Z,100466.30
2019-02-19T19:56:55.837Z,100474.45
2019-02-19T19:59:23.568Z,100475.34
2019-02-19T20:01:51.223Z,100468.42
2019-02-19T20:04:18.882Z,100478.94
2019-02-19T20:06:46.541Z,100472.11
2019-02-19T20:09:14.246Z,100482.16
2019-02-19T20:11:41.904Z,100482.39
2019-02-19T20:14:09.570Z,100476.67
2019-02-19T20:16:37.243Z,100486.69
2019-02-19T20:19:04.893Z,100483.80
2019-02-19T20:21:32.561Z,100487.70
2019-02-19T20:24:00.210Z,100483.97
2019-02-19T20:26:27.871Z,100480.97
2019-02-19T20:28:55.536Z,100471.88
2019-02-19T20:31:23.197Z,100479.91
2019-02-19T20:33:50.842Z,100483.19
2019-02-19T20:36:18.517Z,100495.02
2019-02-19T20:38:46.182Z,100490.45
2019-02-19T20:41:13.841Z,100491.66
2019-02-19T20:43:41.496Z,100490.41
2019-02-19T20:46:09.164Z,100478.17
2019-02-19T20:48:36.822Z,100479.90
2019-02-19T20:51:04.478Z,100480.34
2019-02-19T20:53:32.135Z,100478.70
2019-02-19T20:55:59.794Z,100476.22
2019-02-19T20:58:27.441Z,100473.97
2019-02-19T21:00:55.103Z,100479.91
2019-02-19T21:03:22.780Z,100486.11
2019-02-19T21:05:50.506Z,100490.73
2019-02-19T21:08:18.262Z,100492.94
2019-02-19T21:10:45.934Z,100492.45
2019-02-19T21:13:13.590Z,100489.75
2019-02-19T21:15:41.243Z,100489.97
2019-02-19T21:18:08.891Z,100489.31
2019-02-19T21:20:36.555Z,100476.36
2019-02-19T21:23:04.227Z,100487.26
2019-02-19T21:25:31.887Z,100482.78
2019-02-19T21:27:59.541Z,100488.02
2019-02-19T21:30:27.186Z,100485.05
2019-02-19T21:32:54.859Z,100488.50
2019-02-19T21:35:22.520Z,100490.05
2019-02-19T21:37:50.189Z,100488.78
2019-02-19T21:40:17.850Z,100495.78
2019-02-19T21:42:45.522Z,100501.94
2019-02-19T21:45:13.189Z,100492.54
2019-02-19T21:47:40.934Z,100497.06
2019-02-19T21:50:08.579Z,100494.71
2019-02-19T21:52:36.230Z,100498.84
2019-02-19T21:55:04.611Z,100488.92
2019-02-19T21:57:32.446Z,100490.45
2019-02-19T22:00:00.172Z,100492.31
2019-02-19T22:02:28.046Z,100493.51
2019-02-19T22:04:55.698Z,100497.41
2019-02-19T22:07:23.354Z,100497.59
2019-02-19T22:09:51.013Z,100503.59
2019-02-19T22:12:18.669Z,100508.37
2019-02-19T22:14:46.329Z,100505.45
2019-02-19T22:17:13.992Z,100500.97
2019-02-19T22:19:41.642Z,100501.58
2019-02-19T22:22:13.904Z,100500.74
2019-02-19T22:24:41.565Z,100505.08
2019-02-19T22:27:09.221Z,100500.56
2019-02-19T22:29:36.876Z,100499.19
2019-02-19T22:32:05.010Z,100504.91
2019-02-19T22:34:32.669Z,100511.25
2019-02-19T22:37:00.340Z,100500.03
2019-02-19T22:39:27.988Z,100503.62
2019-02-19T22:41:55.648Z,100510.84
2019-02-19T22:44:23.306Z,100508.31
2019-02-19T22:46:50.965Z,100512.75
2019-02-19T22:49:18.615Z,100510.19
2019-02-19T22:51:46.275Z,100515.69
2019-02-19T22:54:21.117Z,100517.05
2019-02-19T22:56:48.777Z,100511.70
2019-02-19T22:59:16.432Z,100512.59
2019-02-19T23:01:48.061Z,100517.03
2019-02-19T23:04:15.710Z,100517.52
2019-02-19T23:06:43.365Z,100523.47
2019-02-19T23:09:11.031Z,100531.69
2019-02-19T23:11:38.745Z,100528.55
2019-02-19T23:14:06.434Z,100532.92
2019-02-19T23:16:34.096Z,100545.08
2019-02-19T23:19:01.765Z,100537.66
2019-02-19T23:21:29.417Z,100549.41
2019-02-19T23:23:57.066Z,100546.38
2019-02-19T23:26:24.730Z,100550.42
2019-02-19T23:28:52.474Z,100555.72
2019-02-19T23:31:20.135Z,100562.05
2019-02-19T23:33:47.790Z,100563.31
2019-02-19T23:36:20.951Z,100558.59
2019-02-19T23:38:48.604Z,100562.92
2019-02-19T23:41:16.344Z,100555.22
2019-02-19T23:43:44.002Z,100555.81
2019-02-19T23:46:11.657Z,100554.59
2019-02-19T23:48:39.316Z,100550.26
2019-02-19T23:51:06.986Z,100549.94
2019-02-19T23:53:34.634Z,100557.94
2019-02-19T23:56:02.298Z,100552.02
2019-02-19T23:58:29.954Z,100556.22
